Time;durP1;ratioP1;P1;durP2;ratioP2;P2;SDS_P1;SDS_P2;PMS_P1;PMS_P2;Temp;Humidity;BMP_temperature;BMP_pressure;BME280_temperature;BME280_humidity;BME280_pressure;Samples;Min_cycle;Max_cycle;Signal;HPM_P1;HPM_P2
2021/05/18 00:00:36;;;;;;;1.52;1.20;;;11.10;91.00;;;;;;2056009;28;20108;-73
2021/05/18 00:01:37;;;;;;;1.67;1.10;;;11.20;91.10;;;;;;2056114;28;20062;-73
2021/05/18 00:02:38;;;;;;;1.13;0.90;;;11.20;91.10;;;;;;2056005;28;20402;-74
2021/05/18 00:03:39;;;;;;;1.00;1.00;;;11.20;91.00;;;;;;2056151;28;20031;-73
2021/05/18 00:04:40;;;;;;;1.27;1.17;;;11.20;91.10;;;;;;2055999;28;20026;-74
2021/05/18 00:05:43;;;;;;;3.00;1.30;;;11.20;91.10;;;;;;2047382;29;20035;-74
2021/05/18 00:06:46;;;;;;;1.83;1.20;;;11.20;91.10;;;;;;2047466;28;20062;-73
2021/05/18 00:08:09;;;;;;;1.55;1.20;;;11.10;91.20;;;;;;2047538;29;20067;-73
2021/05/18 00:11:50;;;;;;;3.53;2.40;;;11.10;91.40;;;;;;2056014;28;20169;-73
2021/05/18 00:12:51;;;;;;;4.38;3.13;;;11.10;91.50;;;;;;2056127;28;20486;-74
2021/05/18 00:13:54;;;;;;;5.78;3.63;;;11.10;91.50;;;;;;2056049;28;20035;-74
2021/05/18 00:14:54;;;;;;;5.85;3.80;;;11.10;91.60;;;;;;2047316;29;20015;-73
2021/05/18 00:15:58;;;;;;;8.05;4.80;;;11.00;91.60;;;;;;2047154;29;20028;-73
2021/05/18 00:16:58;;;;;;;8.32;5.30;;;11.10;92.00;;;;;;2055919;28;20450;-73
2021/05/18 00:17:59;;;;;;;6.57;3.95;;;11.10;91.80;;;;;;2047512;29;20030;-74
2021/05/18 00:19:01;;;;;;;4.65;3.15;;;11.00;91.90;;;;;;2039779;29;20520;-73
2021/05/18 00:20:09;;;;;;;3.28;2.30;;;11.10;92.00;;;;;;2039744;29;20106;-73
2021/05/18 00:21:10;;;;;;;2.75;2.13;;;11.10;92.10;;;;;;2048588;28;20603;-74
2021/05/18 00:22:10;;;;;;;2.80;2.40;;;11.10;92.10;;;;;;2056209;28;20439;-74
2021/05/18 00:23:12;;;;;;;3.50;2.63;;;11.10;92.10;;;;;;2056151;28;20026;-74
2021/05/18 00:24:14;;;;;;;2.83;2.33;;;11.10;92.10;;;;;;2047491;29;20114;-74
2021/05/18 00:25:15;;;;;;;3.28;2.60;;;11.10;92.10;;;;;;2047829;28;20055;-74
2021/05/18 00:26:15;;;;;;;3.67;2.80;;;11.10;92.20;;;;;;2055633;28;20035;-74
2021/05/18 00:27:19;;;;;;;4.32;3.10;;;11.10;92.20;;;;;;2056033;28;20118;-73
2021/05/18 00:28:20;;;;;;;3.90;2.90;;;11.10;92.20;;;;;;2056064;28;20031;-74
2021/05/18 00:29:21;;;;;;;4.82;2.80;;;11.10;92.20;;;;;;2047409;29;20761;-73
2021/05/18 00:30:23;;;;;;;3.58;2.80;;;11.10;92.20;;;;;;2047480;28;20039;-73
2021/05/18 00:31:23;;;;;;;4.97;2.90;;;11.10;92.20;;;;;;2039254;29;20039;-73
2021/05/18 00:32:25;;;;;;;4.25;3.10;;;11.10;92.20;;;;;;2039418;28;20028;-73
2021/05/18 00:33:26;;;;;;;4.47;3.25;;;11.10;92.10;;;;;;2047335;29;20403;-73
2021/05/18 00:34:26;;;;;;;4.82;3.58;;;11.10;92.10;;;;;;2047532;28;20030;-73
2021/05/18 00:35:27;;;;;;;4.68;3.42;;;11.10;92.20;;;;;;2058558;28;20030;-73
2021/05/18 00:36:27;;;;;;;5.47;3.42;;;11.00;92.30;;;;;;2057903;28;20022;-73
2021/05/18 00:37:28;;;;;;;4.30;3.25;;;11.10;92.30;;;;;;2049328;29;20086;-73
2021/05/18 00:38:29;;;;;;;3.97;3.30;;;11.00;92.20;;;;;;2047648;29;20102;-74
2021/05/18 00:39:30;;;;;;;3.10;2.80;;;11.00;92.20;;;;;;2056092;28;20026;-74
2021/05/18 00:40:30;;;;;;;3.72;2.40;;;11.00;92.20;;;;;;2056030;28;20435;-74
2021/05/18 00:41:31;;;;;;;4.15;2.50;;;11.00;92.20;;;;;;2055982;28;20395;-74
2021/05/18 00:42:42;;;;;;;3.03;2.00;;;11.00;92.30;;;;;;2047336;29;20030;-74
2021/05/18 00:43:43;;;;;;;2.15;1.80;;;11.00;92.30;;;;;;2047551;29;20027;-74
2021/05/18 00:44:44;;;;;;;2.45;1.70;;;11.00;92.30;;;;;;2047385;29;20819;-74
2021/05/18 00:45:49;;;;;;;1.60;1.40;;;11.00;92.30;;;;;;2055976;28;20086;-74
2021/05/18 00:46:49;;;;;;;1.92;1.52;;;11.00;92.40;;;;;;2055514;28;20041;-74
2021/05/18 00:47:50;;;;;;;1.52;1.42;;;11.00;92.40;;;;;;2047476;29;20035;-74
2021/05/18 00:48:57;;;;;;;1.88;1.30;;;10.90;92.50;;;;;;2047537;29;20106;-73
2021/05/18 00:50:01;;;;;;;1.70;1.60;;;11.00;92.60;;;;;;2040819;29;20752;-73
2021/05/18 00:51:08;;;;;;;2.38;1.77;;;11.00;92.60;;;;;;2039568;29;20519;-73
2021/05/18 00:52:09;;;;;;;1.75;1.65;;;11.00;92.60;;;;;;2047427;29;20031;-73
2021/05/18 00:53:14;;;;;;;1.90;1.50;;;11.00;92.60;;;;;;2047347;29;20033;-74
2021/05/18 00:54:25;;;;;;;1.50;1.40;;;11.00;92.40;;;;;;2047482;29;20863;-73
2021/05/18 00:58:55;;;;;;;1.30;1.20;;;11.20;92.00;;;;;;2056022;28;20536;-72
2021/05/18 00:59:57;;;;;;;1.45;1.35;;;11.20;92.00;;;;;;2055894;28;20486;-71
2021/05/18 01:01:02;;;;;;;1.63;1.30;;;11.20;91.90;;;;;;2047264;29;20043;-72
2021/05/18 01:02:02;;;;;;;2.22;1.40;;;11.30;91.80;;;;;;2039804;29;20122;-72
2021/05/18 01:03:04;;;;;;;1.38;1.27;;;11.30;91.60;;;;;;2047449;29;20023;-73
2021/05/18 01:04:04;;;;;;;1.45;1.35;;;11.40;91.60;;;;;;2039341;29;20047;-72
2021/05/18 01:05:10;;;;;;;1.50;1.20;;;11.40;91.50;;;;;;2039571;29;20036;-73
2021/05/18 01:07:24;;;;;;;1.60;1.20;;;11.40;91.30;;;;;;2048325;28;20435;-72
2021/05/18 01:08:25;;;;;;;1.30;1.20;;;11.40;91.20;;;;;;2048753;29;20031;-72
2021/05/18 01:09:25;;;;;;;1.20;1.10;;;11.40;91.30;;;;;;2049284;29;20038;-72
2021/05/18 01:10:26;;;;;;;1.50;1.30;;;11.40;91.30;;;;;;2049155;29;20087;-71
2021/05/18 01:11:29;;;;;;;2.75;1.40;;;11.50;91.30;;;;;;2040654;29;20452;-72
2021/05/18 01:12:30;;;;;;;2.05;1.20;;;11.50;91.20;;;;;;2033233;29;20543;-72
2021/05/18 01:13:33;;;;;;;1.20;1.10;;;11.50;91.20;;;;;;2032712;29;20039;-72
2021/05/18 01:14:34;;;;;;;1.42;1.20;;;11.60;91.10;;;;;;2041059;29;20089;-72
2021/05/18 01:15:35;;;;;;;1.40;1.30;;;11.60;91.10;;;;;;2048493;29;20035;-72
2021/05/18 01:16:40;;;;;;;1.23;1.13;;;11.60;91.10;;;;;;2040147;29;20031;-73
2021/05/18 01:17:40;;;;;;;2.88;1.27;;;11.60;91.00;;;;;;2041247;29;20058;-72
2021/05/18 01:18:44;;;;;;;1.30;1.20;;;11.70;90.90;;;;;;2049300;29;20085;-72
2021/05/18 01:19:46;;;;;;;1.58;1.20;;;11.70;90.90;;;;;;2032755;29;20028;-72
2021/05/18 01:20:57;;;;;;;1.23;1.10;;;11.70;90.80;;;;;;2033133;29;20035;-72
2021/05/18 01:22:00;;;;;;;1.27;1.17;;;11.80;90.70;;;;;;2040859;29;20036;-72
2021/05/18 01:23:03;;;;;;;1.80;1.20;;;11.80;90.50;;;;;;2040817;29;20032;-72
2021/05/18 01:24:05;;;;;;;1.27;1.17;;;11.80;90.50;;;;;;2040668;29;20039;-71
2021/05/18 01:25:06;;;;;;;1.45;1.10;;;11.80;90.50;;;;;;2048658;29;20035;-71
2021/05/18 01:26:09;;;;;;;1.90;1.10;;;11.90;90.40;;;;;;2048239;29;20047;-72
2021/05/18 01:27:10;;;;;;;1.77;1.20;;;11.90;90.30;;;;;;2040558;29;20519;-72
2021/05/18 01:28:11;;;;;;;1.25;1.15;;;11.90;90.30;;;;;;2040623;29;20602;-72
2021/05/18 01:29:13;;;;;;;1.25;1.15;;;11.90;90.30;;;;;;2040725;29;20047;-72
2021/05/18 01:30:18;;;;;;;1.30;1.20;;;11.90;90.20;;;;;;2048821;29;20117;-72
2021/05/18 01:31:22;;;;;;;1.75;1.20;;;12.00;90.20;;;;;;2048769;29;20031;-72
2021/05/18 01:32:25;;;;;;;1.40;1.30;;;12.00;90.20;;;;;;2048571;29;20027;-72
2021/05/18 01:33:26;;;;;;;1.40;1.30;;;12.00;90.30;;;;;;2049165;29;20114;-72
2021/05/18 01:34:27;;;;;;;1.88;1.10;;;12.00;90.30;;;;;;2049168;29;20031;-72
2021/05/18 01:35:31;;;;;;;1.30;1.20;;;12.00;90.40;;;;;;2048519;29;20062;-72
2021/05/18 01:36:34;;;;;;;1.40;1.30;;;12.00;90.50;;;;;;2051731;28;20129;-72
2021/05/18 01:37:35;;;;;;;1.75;1.20;;;12.00;90.40;;;;;;2056445;28;20026;-72
2021/05/18 01:38:43;;;;;;;1.20;1.10;;;12.00;90.40;;;;;;2048329;29;20397;-72
2021/05/18 01:39:55;;;;;;;1.30;1.20;;;12.00;90.50;;;;;;2048533;29;20028;-73
2021/05/18 01:43:38;;;;;;;1.52;1.40;;;12.00;90.70;;;;;;2048407;29;20053;-72
2021/05/18 01:44:41;;;;;;;2.45;1.70;;;12.10;90.90;;;;;;2048371;29;20106;-72
2021/05/18 01:45:44;;;;;;;2.08;1.70;;;12.10;91.00;;;;;;2048421;29;20034;-72
2021/05/18 01:46:46;;;;;;;1.90;1.65;;;12.10;91.30;;;;;;2056605;28;20692;-72
2021/05/18 01:47:52;;;;;;;2.20;1.70;;;12.10;91.40;;;;;;2048528;29;20050;-72
2021/05/18 01:49:09;;;;;;;2.47;1.92;;;12.10;91.50;;;;;;2042853;29;20051;-72
2021/05/18 01:50:29;;;;;;;1.88;1.75;;;12.10;91.50;;;;;;2051552;28;20494;-72
2021/05/18 01:51:33;;;;;;;3.15;2.00;;;12.10;91.40;;;;;;2048288;29;20097;-72
2021/05/18 01:52:34;;;;;;;2.25;2.03;;;12.10;91.70;;;;;;2048931;28;20027;-72
2021/05/18 01:53:34;;;;;;;2.50;2.00;;;12.10;91.60;;;;;;2057164;28;20061;-72
2021/05/18 01:54:36;;;;;;;4.00;2.10;;;12.10;91.70;;;;;;2048541;29;20503;-72
2021/05/18 01:56:36;;;;;;;2.92;2.00;;;12.10;91.90;;;;;;2048489;29;20027;-71
2021/05/18 01:58:17;;;;;;;4.88;2.20;;;12.10;92.30;;;;;;2048334;29;20066;-72
2021/05/18 01:59:29;;;;;;;2.92;2.00;;;12.20;91.80;;;;;;2048248;29;20496;-72
2021/05/18 02:00:34;;;;;;;3.80;2.33;;;12.20;91.80;;;;;;2048241;29;20402;-72
2021/05/18 02:01:49;;;;;;;3.40;2.10;;;12.20;92.00;;;;;;2048376;29;20121;-72
2021/05/18 02:02:51;;;;;;;2.47;2.28;;;12.20;92.00;;;;;;2048767;28;20070;-72
2021/05/18 02:03:57;;;;;;;2.15;1.85;;;12.20;92.20;;;;;;2048219;29;20478;-72
2021/05/18 02:05:04;;;;;;;2.30;2.10;;;12.20;92.10;;;;;;2048226;29;20574;-73
2021/05/18 02:06:13;;;;;;;3.08;2.35;;;12.20;91.90;;;;;;2056438;28;20113;-72
2021/05/18 02:07:31;;;;;;;5.63;2.53;;;12.20;92.20;;;;;;2056760;28;20023;-72
2021/05/18 02:08:32;;;;;;;2.38;2.13;;;12.20;92.20;;;;;;2049566;28;20058;-73
2021/05/18 02:09:36;;;;;;;2.60;2.20;;;12.20;92.40;;;;;;2048193;29;20106;-73
2021/05/18 02:10:38;;;;;;;2.95;2.65;;;12.20;92.40;;;;;;2048280;29;20029;-72
2021/05/18 02:11:44;;;;;;;2.70;2.50;;;12.20;92.40;;;;;;2049034;28;20579;-72
2021/05/18 02:12:46;;;;;;;3.13;2.72;;;12.20;92.40;;;;;;2047944;29;20543;-73
2021/05/18 02:13:49;;;;;;;3.88;2.60;;;12.20;92.50;;;;;;2040128;29;20023;-72
2021/05/18 02:15:09;;;;;;;4.40;2.90;;;12.20;92.70;;;;;;2035806;29;20156;-72
2021/05/18 02:16:14;;;;;;;3.22;2.70;;;12.20;92.50;;;;;;2050492;28;20039;-73
2021/05/18 02:25:32;;;;;;;5.10;3.58;;;12.10;92.80;;;;;;2056741;28;20022;-72
2021/05/18 02:26:56;;;;;;;3.90;2.90;;;12.10;92.40;;;;;;2050963;28;20075;-73
2021/05/18 02:27:57;;;;;;;3.75;3.00;;;12.10;92.90;;;;;;2056696;28;20042;-73
2021/05/18 02:29:00;;;;;;;3.72;3.00;;;12.10;93.10;;;;;;2056703;28;20064;-72
2021/05/18 02:30:04;;;;;;;3.65;3.03;;;12.10;93.00;;;;;;2040136;29;20057;-73
2021/05/18 02:31:07;;;;;;;4.13;3.33;;;12.10;93.00;;;;;;2041538;28;20087;-73
2021/05/18 02:32:17;;;;;;;;;;;12.10;92.90;;;;;;2048488;29;20045;-73
2021/05/18 02:33:22;;;;;;;3.72;3.05;;;12.10;93.30;;;;;;2048520;28;20446;-73
2021/05/18 02:34:23;;;;;;;4.18;3.35;;;12.10;93.30;;;;;;2048063;29;20074;-73
2021/05/18 02:35:24;;;;;;;4.82;3.90;;;12.10;93.30;;;;;;2048045;28;20513;-73
2021/05/18 02:36:27;;;;;;;4.90;3.80;;;12.10;93.30;;;;;;2056286;28;20030;-72
2021/05/18 02:37:27;;;;;;;4.35;3.53;;;12.00;93.20;;;;;;2047986;28;20027;-73
2021/05/18 02:38:28;;;;;;;5.88;3.90;;;12.00;93.30;;;;;;2040460;29;20038;-73
2021/05/18 02:39:29;;;;;;;5.47;3.47;;;12.00;93.50;;;;;;2047997;29;20043;-73
2021/05/18 02:40:31;;;;;;;4.10;3.55;;;12.00;93.40;;;;;;2048174;28;20277;-72
2021/05/18 02:41:32;;;;;;;5.93;4.38;;;12.00;93.60;;;;;;2063996;28;20490;-72
2021/05/18 02:42:35;;;;;;;6.82;4.50;;;12.00;93.50;;;;;;2063768;28;20073;-72
2021/05/18 02:44:03;;;;;;;5.97;4.40;;;12.00;93.40;;;;;;2047942;28;20114;-72
2021/05/18 02:45:08;;;;;;;4.80;4.15;;;12.00;93.30;;;;;;2050716;28;20439;-72
2021/05/18 02:49:21;;;;;;;5.32;4.05;;;12.00;93.70;;;;;;2027703;28;20037;-73
2021/05/18 02:50:22;;;;;;;5.13;4.00;;;12.00;93.80;;;;;;2053298;28;20106;-73
2021/05/18 02:51:23;;;;;;;5.35;3.53;;;12.00;93.70;;;;;;2047758;29;20034;-72
2021/05/18 02:52:26;;;;;;;5.57;3.83;;;12.00;93.80;;;;;;2040317;29;20028;-72
2021/05/18 02:53:28;;;;;;;5.47;3.70;;;12.00;93.80;;;;;;2047891;29;20031;-72
2021/05/18 02:54:29;;;;;;;6.10;4.72;;;12.00;93.90;;;;;;2048214;28;20038;-72
2021/05/18 02:55:42;;;;;;;5.45;4.63;;;12.00;93.50;;;;;;2049027;29;20122;-72
2021/05/18 02:57:46;;;;;;;5.38;4.18;;;12.00;93.40;;;;;;2049935;29;20043;-73
2021/05/18 02:58:57;;;;;;;6.32;4.55;;;12.00;93.70;;;;;;2056980;28;20042;-73
2021/05/18 03:00:09;;;;;;;7.95;4.97;;;12.00;93.30;;;;;;2056626;28;20489;-71
2021/05/18 03:01:09;;;;;;;5.60;4.72;;;12.00;93.30;;;;;;2056724;28;20179;-72
2021/05/18 03:02:10;;;;;;;5.38;4.50;;;12.00;93.40;;;;;;2056609;28;20042;-72
2021/05/18 03:03:10;;;;;;;5.75;4.53;;;12.00;93.30;;;;;;2048090;29;20780;-72
2021/05/18 03:04:12;;;;;;;7.80;5.13;;;12.00;93.40;;;;;;2048076;28;20355;-72
2021/05/18 03:05:13;;;;;;;8.77;5.45;;;12.00;93.40;;;;;;2056635;28;20019;-72
2021/05/18 03:06:13;;;;;;;7.95;5.13;;;12.00;93.60;;;;;;2047250;29;20442;-72
2021/05/18 03:07:14;;;;;;;6.80;4.97;;;12.00;93.70;;;;;;2047989;28;20102;-72
2021/05/18 03:08:15;;;;;;;6.28;5.05;;;12.00;93.70;;;;;;2047964;29;20062;-72
2021/05/18 03:09:16;;;;;;;6.05;5.20;;;12.00;93.70;;;;;;2056385;28;20108;-72
2021/05/18 03:10:17;;;;;;;7.03;5.45;;;12.10;93.60;;;;;;2056575;28;20427;-73
2021/05/18 03:11:18;;;;;;;6.93;5.25;;;12.00;93.60;;;;;;2056530;28;20042;-72
2021/05/18 03:12:18;;;;;;;7.78;5.28;;;12.00;93.60;;;;;;2056475;28;20015;-73
2021/05/18 03:13:19;;;;;;;7.03;4.90;;;12.00;93.70;;;;;;2056255;28;20029;-72
2021/05/18 03:14:21;;;;;;;6.68;4.97;;;12.10;93.90;;;;;;2056417;28;20483;-72
2021/05/18 03:15:21;;;;;;;6.70;5.78;;;12.10;93.90;;;;;;2056482;28;20121;-71
2021/05/18 03:16:22;;;;;;;8.63;6.30;;;12.10;94.10;;;;;;2056109;28;20755;-72
2021/05/18 03:17:23;;;;;;;10.27;5.78;;;12.10;94.30;;;;;;2047724;28;20055;-72
2021/05/18 03:18:23;;;;;;;7.55;5.95;;;12.10;94.60;;;;;;2047791;29;20023;-71
2021/05/18 03:19:24;;;;;;;7.55;6.38;;;12.10;94.60;;;;;;2047830;29;20046;-71
2021/05/18 03:20:25;;;;;;;8.57;6.00;;;12.10;94.30;;;;;;2047650;29;20067;-72
2021/05/18 03:21:26;;;;;;;8.23;6.30;;;12.10;94.40;;;;;;2047870;28;20029;-72
2021/05/18 03:22:26;;;;;;;9.23;6.40;;;12.00;94.50;;;;;;2056458;28;20049;-72
2021/05/18 03:23:27;;;;;;;8.43;6.97;;;12.00;94.80;;;;;;2056503;28;20027;-72
2021/05/18 03:24:28;;;;;;;11.95;7.10;;;12.00;94.50;;;;;;2056516;28;20089;-71
2021/05/18 03:25:28;;;;;;;9.55;6.70;;;12.00;94.60;;;;;;2056454;28;20050;-72
2021/05/18 03:26:29;;;;;;;7.82;6.72;;;12.00;94.80;;;;;;2055917;28;20042;-72
2021/05/18 03:27:30;;;;;;;11.98;7.28;;;12.00;94.60;;;;;;2056485;28;20102;-72
2021/05/18 03:28:31;;;;;;;11.32;7.20;;;12.00;94.70;;;;;;2047766;29;20114;-71
2021/05/18 03:29:33;;;;;;;9.15;7.57;;;12.00;95.20;;;;;;2047171;28;20039;-72
2021/05/18 03:34:33;;;;;;;10.10;7.22;;;12.00;94.80;;;;;;2056359;28;20101;-71
2021/05/18 03:35:34;;;;;;;9.70;7.55;;;12.00;94.90;;;;;;2056344;28;20037;-71
2021/05/18 03:36:35;;;;;;;9.52;7.10;;;12.00;95.10;;;;;;2055606;28;20030;-71
2021/05/18 03:37:52;;;;;;;7.68;6.28;;;12.00;94.80;;;;;;2047568;29;20070;-71
2021/05/18 03:38:56;;;;;;;8.65;6.45;;;12.00;94.60;;;;;;2049980;28;20454;-71
2021/05/18 03:40:04;;;;;;;8.05;6.88;;;12.00;94.90;;;;;;2056183;28;20561;-71
2021/05/18 03:41:19;;;;;;;9.43;6.72;;;12.00;94.80;;;;;;2056099;28;20033;-71
2021/05/18 03:42:23;;;;;;;6.97;6.15;;;11.90;94.60;;;;;;2055623;28;20119;-72
2021/05/18 03:43:41;;;;;;;6.60;5.72;;;11.90;95.10;;;;;;2047788;28;20574;-71
2021/05/18 03:45:50;;;;;;;7.15;6.00;;;11.90;95.30;;;;;;2056217;28;20490;-73
2021/05/18 04:04:10;;;;;;;9.40;7.10;;;11.60;98.10;;;;;;2056294;28;20027;-72
2021/05/18 04:10:27;;;;;;;9.43;7.60;;;11.60;97.60;;;;;;2056225;28;20038;-71
2021/05/18 04:13:04;;;;;;;9.63;7.45;;;11.60;97.80;;;;;;2056152;28;20022;-73
2021/05/18 04:17:00;;;;;;;12.45;8.77;;;11.60;98.20;;;;;;2032002;29;20064;-72
2021/05/18 04:18:19;;;;;;;10.95;9.52;;;11.50;98.50;;;;;;2041238;28;20102;-72
2021/05/18 04:19:25;;;;;;;11.02;9.23;;;11.60;98.80;;;;;;2039733;29;20150;-73
2021/05/18 04:22:06;;;;;;;11.25;8.93;;;11.60;98.50;;;;;;2056316;28;20038;-72
2021/05/18 04:24:46;;;;;;;12.43;9.20;;;11.70;98.70;;;;;;2047473;29;20204;-72
2021/05/18 04:39:14;;;;;;;9.13;8.18;;;11.60;98.00;;;;;;2056095;28;20038;-73
2021/05/18 04:51:00;;;;;;;11.15;9.80;;;11.40;99.00;;;;;;2051536;28;20127;-73
2021/05/18 04:52:07;;;;;;;14.45;10.73;;;11.40;99.10;;;;;;2057439;28;20118;-73
2021/05/18 04:59:45;;;;;;;15.15;12.00;;;11.50;99.70;;;;;;2057491;28;20027;-73
2021/05/18 05:04:18;;;;;;;18.25;12.63;;;11.50;99.60;;;;;;2057543;28;20039;-73
2021/05/18 05:06:46;;;;;;;15.73;12.07;;;11.50;99.90;;;;;;2051379;28;20038;-73
2021/05/18 05:09:03;;;;;;;18.02;13.55;;;11.50;99.90;;;;;;2057372;28;20490;-73
2021/05/18 05:10:04;;;;;;;17.52;14.10;;;11.50;99.90;;;;;;2048899;29;20086;-73
2021/05/18 05:14:41;;;;;;;17.83;13.70;;;11.50;99.90;;;;;;2051674;28;20024;-74
2021/05/18 05:15:43;;;;;;;17.35;13.27;;;11.50;99.60;;;;;;2057887;28;20106;-74
2021/05/18 05:16:44;;;;;;;19.42;13.95;;;11.50;99.80;;;;;;2057002;28;20027;-73
2021/05/18 05:17:44;;;;;;;16.33;13.07;;;11.50;99.50;;;;;;2049983;29;20062;-73
2021/05/18 05:18:45;;;;;;;16.90;13.73;;;11.60;99.50;;;;;;2044610;29;20078;-73
2021/05/18 05:19:45;;;;;;;18.63;14.70;;;11.60;99.60;;;;;;2044127;29;20039;-73
2021/05/18 05:20:46;;;;;;;18.77;14.25;;;11.60;99.70;;;;;;2042298;29;20059;-73
2021/05/18 05:21:47;;;;;;;18.23;13.85;;;11.60;99.40;;;;;;2049025;29;20081;-73
2021/05/18 05:22:47;;;;;;;18.73;14.05;;;11.60;99.40;;;;;;2048697;29;20090;-73
2021/05/18 05:23:49;;;;;;;16.90;13.88;;;11.60;99.40;;;;;;2048742;29;20117;-73
2021/05/18 05:24:50;;;;;;;16.75;13.85;;;11.70;99.40;;;;;;2057284;28;20035;-73
2021/05/18 05:25:50;;;;;;;15.77;13.18;;;11.70;99.30;;;;;;2056600;28;20804;-72
2021/05/18 05:26:52;;;;;;;18.65;13.40;;;11.70;99.00;;;;;;2056391;28;20120;-72
2021/05/18 05:27:53;;;;;;;18.70;14.13;;;11.70;98.50;;;;;;2057320;28;20401;-73
2021/05/18 05:28:53;;;;;;;16.00;13.15;;;11.70;98.10;;;;;;2057330;28;20031;-74
2021/05/18 05:29:54;;;;;;;18.23;13.35;;;11.70;98.10;;;;;;2057207;28;20030;-72
2021/05/18 05:30:55;;;;;;;18.70;13.30;;;11.70;98.00;;;;;;2057366;28;20038;-73
2021/05/18 05:31:56;;;;;;;18.75;13.68;;;11.70;98.00;;;;;;2048716;29;20039;-73
2021/05/18 05:32:56;;;;;;;17.33;13.07;;;11.70;98.00;;;;;;2048744;28;20028;-73
2021/05/18 05:33:58;;;;;;;18.65;13.48;;;11.70;98.00;;;;;;2057344;28;20161;-73
2021/05/18 05:34:58;;;;;;;17.63;13.30;;;11.70;97.90;;;;;;2048658;29;20036;-73
2021/05/18 05:35:59;;;;;;;16.70;13.70;;;11.70;97.90;;;;;;2040181;29;20036;-73
2021/05/18 05:36:59;;;;;;;18.45;13.35;;;11.80;98.00;;;;;;2048195;28;20114;-73
2021/05/18 05:38:00;;;;;;;16.40;12.75;;;11.80;98.00;;;;;;2057195;28;20035;-73
2021/05/18 05:39:07;;;;;;;16.35;12.52;;;11.90;98.00;;;;;;2057006;28;20485;-73
2021/05/18 05:40:09;;;;;;;17.05;13.02;;;11.90;97.30;;;;;;2057118;28;20027;-73
2021/05/18 05:41:09;;;;;;;16.92;12.63;;;11.90;97.10;;;;;;2057135;28;20023;-73
2021/05/18 05:42:10;;;;;;;16.02;12.50;;;11.90;97.30;;;;;;2057282;28;20150;-73
2021/05/18 05:43:11;;;;;;;15.73;12.90;;;12.00;97.50;;;;;;2057076;28;20122;-73
2021/05/18 05:44:11;;;;;;;16.67;13.07;;;12.10;97.40;;;;;;2057173;28;20031;-73
2021/05/18 05:45:12;;;;;;;17.35;12.57;;;12.10;96.60;;;;;;2057120;28;20038;-73
2021/05/18 05:46:13;;;;;;;15.50;12.45;;;12.10;96.50;;;;;;2048188;29;20045;-73
2021/05/18 05:47:13;;;;;;;16.05;12.30;;;12.20;96.50;;;;;;2048317;29;20097;-73
2021/05/18 05:48:14;;;;;;;15.88;11.63;;;12.20;96.50;;;;;;2057089;28;20035;-73
2021/05/18 05:49:15;;;;;;;17.13;11.70;;;12.30;95.90;;;;;;2057138;28;20031;-73
2021/05/18 05:50:16;;;;;;;15.93;12.20;;;12.30;95.60;;;;;;2056952;28;20031;-73
2021/05/18 05:51:17;;;;;;;15.57;11.45;;;12.40;95.70;;;;;;2057013;28;20117;-73
2021/05/18 05:52:19;;;;;;;14.80;11.77;;;12.40;95.70;;;;;;2056431;28;20121;-73
2021/05/18 05:53:20;;;;;;;15.43;11.73;;;12.40;95.40;;;;;;2048593;29;20031;-73
2021/05/18 05:54:21;;;;;;;16.70;11.40;;;12.30;95.00;;;;;;2040404;29;20028;-73
2021/05/18 05:55:21;;;;;;;17.58;11.43;;;12.40;95.60;;;;;;2048345;29;20063;-72
2021/05/18 05:56:22;;;;;;;14.48;11.63;;;12.30;95.00;;;;;;2056878;28;20027;-72
2021/05/18 05:57:23;;;;;;;13.80;11.68;;;12.30;95.30;;;;;;2048238;29;20034;-73
2021/05/18 05:58:23;;;;;;;14.68;11.88;;;12.30;95.50;;;;;;2048371;29;20376;-73
2021/05/18 05:59:24;;;;;;;15.77;11.57;;;12.30;95.60;;;;;;2048366;29;20796;-71
2021/05/18 06:00:24;;;;;;;15.32;11.82;;;12.30;95.20;;;;;;2048394;29;20055;-72
2021/05/18 06:01:25;;;;;;;14.85;11.73;;;12.30;95.30;;;;;;2056818;28;20113;-72
2021/05/18 06:02:26;;;;;;;14.05;11.20;;;12.30;95.70;;;;;;2048272;29;20023;-72
2021/05/18 06:03:26;;;;;;;15.13;11.43;;;12.30;96.00;;;;;;2048483;29;20039;-72
2021/05/18 06:04:27;;;;;;;15.40;11.60;;;12.20;95.10;;;;;;2057091;28;20053;-72
2021/05/18 06:05:28;;;;;;;14.25;11.82;;;12.20;95.00;;;;;;2057067;28;20022;-72
2021/05/18 06:06:28;;;;;;;14.25;11.75;;;12.20;95.70;;;;;;2056284;28;20030;-72
2021/05/18 06:07:29;;;;;;;14.75;12.07;;;12.20;96.00;;;;;;2048794;28;20823;-72
2021/05/18 06:08:31;;;;;;;13.50;11.38;;;12.20;95.50;;;;;;2055640;28;20462;-72
2021/05/18 06:09:33;;;;;;;14.43;12.05;;;12.20;95.70;;;;;;2056921;28;20754;-72
2021/05/18 06:10:37;;;;;;;15.48;11.88;;;12.30;95.90;;;;;;2056788;28;20057;-72
2021/05/18 06:14:08;;;;;;;13.00;11.20;;;12.20;95.30;;;;;;2056840;28;20115;-72
2021/05/18 06:45:55;;;;;;;15.57;12.70;;;12.10;95.80;;;;;;2048035;29;20098;-73
2021/05/18 06:47:10;;;;;;;13.80;11.85;;;12.20;96.40;;;;;;2043007;29;20141;-73
2021/05/18 06:48:11;;;;;;;18.00;12.98;;;12.20;96.50;;;;;;2042431;29;20123;-73
2021/05/18 06:49:11;;;;;;;18.85;13.52;;;12.20;96.80;;;;;;2050215;29;20023;-73
2021/05/18 06:51:15;;;;;;;17.90;13.63;;;12.20;96.40;;;;;;2051413;28;20086;-72
2021/05/18 06:52:16;;;;;;;16.48;13.75;;;12.20;96.30;;;;;;2060767;28;20043;-73
2021/05/18 06:53:17;;;;;;;16.67;13.50;;;12.20;96.50;;;;;;2052303;29;20028;-73
2021/05/18 06:54:17;;;;;;;22.30;16.80;;;12.20;96.60;;;;;;2052129;28;20027;-73
2021/05/18 06:55:21;;;;;;;16.20;13.05;;;12.20;96.60;;;;;;2060694;28;20094;-72
2021/05/18 06:56:23;;;;;;;17.38;12.85;;;12.20;96.30;;;;;;2059472;28;20046;-74
2021/05/18 06:57:24;;;;;;;18.27;13.60;;;12.20;96.00;;;;;;2059138;28;20034;-72
2021/05/18 07:00:58;;;;;;;17.17;12.35;;;12.30;96.20;;;;;;2051389;28;20027;-73
2021/05/18 07:02:00;;;;;;;16.25;12.10;;;12.40;96.30;;;;;;2056644;28;20046;-73
2021/05/18 07:03:02;;;;;;;13.60;11.50;;;12.40;94.80;;;;;;2056650;28;20517;-73
2021/05/18 07:04:07;;;;;;;12.57;10.75;;;12.30;94.40;;;;;;2056039;28;20026;-73
2021/05/18 07:05:29;;;;;;;16.63;11.55;;;12.30;94.00;;;;;;2056942;28;20077;-73
2021/05/18 07:06:47;;;;;;;15.25;11.57;;;12.30;94.40;;;;;;2056448;28;20034;-74
2021/05/18 07:07:54;;;;;;;15.88;10.57;;;12.40;94.80;;;;;;2056610;28;20121;-74
2021/05/18 07:08:56;;;;;;;14.65;11.48;;;12.40;93.70;;;;;;2056436;28;20026;-73
2021/05/18 07:09:56;;;;;;;12.38;11.05;;;12.50;94.70;;;;;;2047785;29;20083;-73
2021/05/18 07:10:57;;;;;;;51.97;12.23;;;12.60;94.30;;;;;;2047929;29;20047;-73
2021/05/18 07:11:57;;;;;;;13.38;10.10;;;12.70;94.90;;;;;;2047798;29;20027;-73
2021/05/18 07:12:58;;;;;;;11.68;9.27;;;12.70;93.20;;;;;;2047807;29;20525;-73
2021/05/18 07:13:59;;;;;;;11.73;9.45;;;12.70;92.60;;;;;;2047767;29;20036;-74
2021/05/18 07:15:00;;;;;;;11.20;9.27;;;12.60;93.00;;;;;;2047717;29;20023;-73
2021/05/18 07:16:01;;;;;;;12.00;9.27;;;12.60;92.60;;;;;;2039505;29;20047;-73
2021/05/18 07:17:02;;;;;;;12.48;9.80;;;12.60;92.70;;;;;;2047900;28;20031;-73
2021/05/18 07:18:03;;;;;;;12.65;9.65;;;12.70;93.20;;;;;;2047736;29;20110;-73
2021/05/18 07:19:04;;;;;;;11.65;9.73;;;12.70;92.90;;;;;;2047854;29;20534;-73
2021/05/18 07:20:05;;;;;;;12.48;10.20;;;12.80;93.80;;;;;;2056399;28;20063;-74
2021/05/18 07:21:06;;;;;;;12.77;10.50;;;12.80;93.50;;;;;;2056347;28;20027;-74
2021/05/18 07:22:07;;;;;;;12.40;10.07;;;12.90;93.90;;;;;;2047767;29;20135;-74
2021/05/18 07:23:10;;;;;;;11.82;10.07;;;13.00;94.50;;;;;;2047935;28;20063;-74
2021/05/18 07:24:18;;;;;;;13.13;9.85;;;13.10;93.60;;;;;;2056458;28;20050;-74
2021/05/18 07:25:18;;;;;;;11.27;8.80;;;13.20;93.50;;;;;;2047640;29;20035;-74
2021/05/18 07:26:19;;;;;;;14.65;9.23;;;13.20;92.40;;;;;;2047506;29;20038;-73
2021/05/18 07:27:23;;;;;;;12.52;9.68;;;13.20;92.30;;;;;;2056426;28;20475;-73
2021/05/18 07:28:29;;;;;;;13.80;9.80;;;13.20;92.80;;;;;;2056214;28;20038;-72
2021/05/18 07:29:30;;;;;;;11.07;9.40;;;13.20;92.10;;;;;;2056340;28;20200;-72
2021/05/18 07:30:31;;;;;;;12.80;9.57;;;13.10;92.30;;;;;;2056479;28;20038;-71
2021/05/18 07:31:32;;;;;;;13.73;9.75;;;13.20;92.30;;;;;;2039763;29;20033;-72
2021/05/18 07:32:32;;;;;;;12.02;9.73;;;13.30;92.50;;;;;;2040044;29;20024;-72
2021/05/18 07:33:34;;;;;;;12.55;10.07;;;13.40;92.50;;;;;;2056518;28;20065;-72
2021/05/18 07:34:35;;;;;;;12.05;9.40;;;13.60;93.00;;;;;;2056422;28;20018;-72
2021/05/18 07:35:36;;;;;;;14.27;10.40;;;13.80;92.10;;;;;;2056412;28;20082;-71
2021/05/18 07:36:37;;;;;;;13.90;9.75;;;13.90;91.60;;;;;;2055996;28;20026;-72
2021/05/18 07:37:39;;;;;;;11.18;8.85;;;13.90;90.80;;;;;;2056649;28;20033;-73
2021/05/18 07:38:42;;;;;;;10.82;8.13;;;13.90;89.40;;;;;;2055712;28;20041;-71
2021/05/18 07:39:43;;;;;;;12.30;8.63;;;13.90;89.20;;;;;;2042440;29;20156;-71
2021/05/18 07:40:43;;;;;;;11.48;8.07;;;13.80;89.10;;;;;;2051391;28;20546;-71
2021/05/18 07:41:44;;;;;;;10.45;7.63;;;13.80;87.20;;;;;;2054632;28;20796;-71